sensor_id;sensor_type;location;lat;lon;timestamp;P1;durP1;ratioP1;P2;durP2;ratioP2
7557;SDS011;3820;51.098;13.716;2023-02-28T00:01:24;10.17;;;7.57;;
7557;SDS011;3820;51.098;13.716;2023-02-28T00:03:50;8.13;;;6.53;;
7557;SDS011;3820;51.098;13.716;2023-02-28T00:06:17;9.50;;;6.67;;
7557;SDS011;3820;51.098;13.716;2023-02-28T00:08:44;9.07;;;6.53;;
7557;SDS011;3820;51.098;13.716;2023-02-28T00:11:11;11.37;;;7.23;;
7557;SDS011;3820;51.098;13.716;2023-02-28T00:13:40;10.73;;;7.10;;
7557;SDS011;3820;51.098;13.716;2023-02-28T00:16:09;12.13;;;7.17;;
7557;SDS011;3820;51.098;13.716;2023-02-28T00:18:39;9.97;;;6.87;;
7557;SDS011;3820;51.098;13.716;2023-02-28T00:21:06;11.67;;;6.60;;
7557;SDS011;3820;51.098;13.716;2023-02-28T00:23:33;13.30;;;7.50;;
7557;SDS011;3820;51.098;13.716;2023-02-28T00:26:00;10.57;;;7.17;;
7557;SDS011;3820;51.098;13.716;2023-02-28T00:28:27;10.20;;;6.33;;
7557;SDS011;3820;51.098;13.716;2023-02-28T00:30:54;9.50;;;7.20;;
7557;SDS011;3820;51.098;13.716;2023-02-28T00:33:21;12.80;;;7.90;;
7557;SDS011;3820;51.098;13.716;2023-02-28T00:35:49;13.80;;;7.30;;
7557;SDS011;3820;51.098;13.716;2023-02-28T00:38:16;10.87;;;6.77;;
7557;SDS011;3820;51.098;13.716;2023-02-28T00:40:42;9.63;;;7.10;;
7557;SDS011;3820;51.098;13.716;2023-02-28T00:43:09;11.30;;;6.83;;
7557;SDS011;3820;51.098;13.716;2023-02-28T00:45:36;15.57;;;7.23;;
7557;SDS011;3820;51.098;13.716;2023-02-28T00:48:03;14.23;;;7.50;;
7557;SDS011;3820;51.098;13.716;2023-02-28T00:50:30;11.30;;;7.87;;
7557;SDS011;3820;51.098;13.716;2023-02-28T00:52:57;11.00;;;7.60;;
7557;SDS011;3820;51.098;13.716;2023-02-28T00:55:23;14.57;;;8.27;;
7557;SDS011;3820;51.098;13.716;2023-02-28T00:57:50;10.97;;;8.20;;
7557;SDS011;3820;51.098;13.716;2023-02-28T01:00:17;12.87;;;7.87;;
7557;SDS011;3820;51.098;13.716;2023-02-28T01:02:44;13.73;;;7.83;;
7557;SDS011;3820;51.098;13.716;2023-02-28T01:05:11;11.57;;;7.57;;
7557;SDS011;3820;51.098;13.716;2023-02-28T01:07:38;12.93;;;7.37;;
7557;SDS011;3820;51.098;13.716;2023-02-28T01:10:04;10.80;;;7.70;;
7557;SDS011;3820;51.098;13.716;2023-02-28T01:12:31;11.63;;;7.80;;
7557;SDS011;3820;51.098;13.716;2023-02-28T01:14:58;11.70;;;7.70;;
7557;SDS011;3820;51.098;13.716;2023-02-28T01:17:24;12.10;;;7.80;;
7557;SDS011;3820;51.098;13.716;2023-02-28T01:19:53;12.83;;;7.80;;
7557;SDS011;3820;51.098;13.716;2023-02-28T01:22:21;11.90;;;7.90;;
7557;SDS011;3820;51.098;13.716;2023-02-28T01:24:48;11.57;;;8.00;;
7557;SDS011;3820;51.098;13.716;2023-02-28T01:27:14;13.13;;;7.53;;
7557;SDS011;3820;51.098;13.716;2023-02-28T01:29:41;10.60;;;7.47;;
7557;SDS011;3820;51.098;13.716;2023-02-28T01:32:08;11.30;;;7.60;;
7557;SDS011;3820;51.098;13.716;2023-02-28T01:34:34;13.60;;;8.03;;
7557;SDS011;3820;51.098;13.716;2023-02-28T01:37:01;14.07;;;8.47;;
7557;SDS011;3820;51.098;13.716;2023-02-28T01:39:28;12.93;;;8.03;;
7557;SDS011;3820;51.098;13.716;2023-02-28T01:41:55;14.60;;;8.27;;
7557;SDS011;3820;51.098;13.716;2023-02-28T01:47:22;14.20;;;8.47;;
7557;SDS011;3820;51.098;13.716;2023-02-28T01:49:49;11.50;;;7.90;;
7557;SDS011;3820;51.098;13.716;2023-02-28T01:52:18;13.63;;;7.87;;
7557;SDS011;3820;51.098;13.716;2023-02-28T01:54:46;14.23;;;8.83;;
7557;SDS011;3820;51.098;13.716;2023-02-28T01:57:17;13.13;;;8.37;;
7557;SDS011;3820;51.098;13.716;2023-02-28T01:59:57;15.20;;;8.67;;
7557;SDS011;3820;51.098;13.716;2023-02-28T02:02:26;15.57;;;8.90;;
7557;SDS011;3820;51.098;13.716;2023-02-28T02:04:55;11.77;;;7.93;;
7557;SDS011;3820;51.098;13.716;2023-02-28T02:07:25;14.60;;;8.27;;
7557;SDS011;3820;51.098;13.716;2023-02-28T02:10:06;10.83;;;7.90;;
7557;SDS011;3820;51.098;13.716;2023-02-28T02:18:48;12.43;;;8.17;;
7557;SDS011;3820;51.098;13.716;2023-02-28T02:22:02;15.40;;;8.83;;
7557;SDS011;3820;51.098;13.716;2023-02-28T02:41:08;12.00;;;8.10;;
7557;SDS011;3820;51.098;13.716;2023-02-28T02:46:24;11.60;;;8.70;;
7557;SDS011;3820;51.098;13.716;2023-02-28T02:48:55;13.30;;;9.20;;
7557;SDS011;3820;51.098;13.716;2023-02-28T02:51:23;15.10;;;9.03;;
7557;SDS011;3820;51.098;13.716;2023-02-28T02:53:52;14.73;;;8.80;;
7557;SDS011;3820;51.098;13.716;2023-02-28T02:56:23;16.27;;;8.63;;
7557;SDS011;3820;51.098;13.716;2023-02-28T02:58:53;14.03;;;9.33;;
7557;SDS011;3820;51.098;13.716;2023-02-28T03:01:23;13.03;;;8.83;;
7557;SDS011;3820;51.098;13.716;2023-02-28T03:03:59;13.40;;;8.60;;
7557;SDS011;3820;51.098;13.716;2023-02-28T03:06:28;13.47;;;9.13;;
7557;SDS011;3820;51.098;13.716;2023-02-28T03:08:55;16.17;;;8.77;;
7557;SDS011;3820;51.098;13.716;2023-02-28T03:11:21;14.10;;;9.90;;
7557;SDS011;3820;51.098;13.716;2023-02-28T03:16:45;14.23;;;8.80;;
7557;SDS011;3820;51.098;13.716;2023-02-28T03:28:18;16.13;;;9.93;;
7557;SDS011;3820;51.098;13.716;2023-02-28T03:32:54;17.37;;;9.30;;
7557;SDS011;3820;51.098;13.716;2023-02-28T03:35:25;16.87;;;10.27;;
7557;SDS011;3820;51.098;13.716;2023-02-28T03:37:58;18.53;;;10.00;;
7557;SDS011;3820;51.098;13.716;2023-02-28T03:40:30;14.30;;;9.63;;
7557;SDS011;3820;51.098;13.716;2023-02-28T03:43:01;14.10;;;9.10;;
7557;SDS011;3820;51.098;13.716;2023-02-28T03:45:31;14.70;;;9.50;;
7557;SDS011;3820;51.098;13.716;2023-02-28T03:48:01;16.13;;;10.50;;
7557;SDS011;3820;51.098;13.716;2023-02-28T03:50:35;18.27;;;9.50;;
7557;SDS011;3820;51.098;13.716;2023-02-28T03:53:08;15.47;;;10.70;;
7557;SDS011;3820;51.098;13.716;2023-02-28T03:55:41;17.30;;;10.63;;
7557;SDS011;3820;51.098;13.716;2023-02-28T03:58:20;19.70;;;10.87;;
7557;SDS011;3820;51.098;13.716;2023-02-28T04:00:56;16.63;;;10.57;;
7557;SDS011;3820;51.098;13.716;2023-02-28T04:03:26;17.63;;;10.37;;
7557;SDS011;3820;51.098;13.716;2023-02-28T04:05:53;16.57;;;10.67;;
7557;SDS011;3820;51.098;13.716;2023-02-28T04:08:21;17.27;;;10.77;;
7557;SDS011;3820;51.098;13.716;2023-02-28T04:10:51;17.90;;;11.23;;
7557;SDS011;3820;51.098;13.716;2023-02-28T04:13:22;16.80;;;10.63;;
7557;SDS011;3820;51.098;13.716;2023-02-28T04:15:48;21.20;;;11.90;;
7557;SDS011;3820;51.098;13.716;2023-02-28T04:18:15;19.13;;;11.70;;
7557;SDS011;3820;51.098;13.716;2023-02-28T04:20:41;19.17;;;12.27;;
7557;SDS011;3820;51.098;13.716;2023-02-28T04:23:08;19.53;;;12.13;;
7557;SDS011;3820;51.098;13.716;2023-02-28T04:25:35;23.07;;;12.63;;
7557;SDS011;3820;51.098;13.716;2023-02-28T04:28:01;19.03;;;12.33;;
7557;SDS011;3820;51.098;13.716;2023-02-28T04:30:27;22.40;;;13.47;;
7557;SDS011;3820;51.098;13.716;2023-02-28T04:32:56;21.37;;;12.90;;
7557;SDS011;3820;51.098;13.716;2023-02-28T04:35:22;26.03;;;13.37;;
7557;SDS011;3820;51.098;13.716;2023-02-28T04:37:49;21.60;;;13.37;;
7557;SDS011;3820;51.098;13.716;2023-02-28T04:40:16;22.07;;;13.73;;
7557;SDS011;3820;51.098;13.716;2023-02-28T04:42:42;22.67;;;13.00;;
7557;SDS011;3820;51.098;13.716;2023-02-28T04:45:09;22.77;;;13.20;;
7557;SDS011;3820;51.098;13.716;2023-02-28T04:47:37;21.20;;;13.10;;
7557;SDS011;3820;51.098;13.716;2023-02-28T04:50:04;25.43;;;13.87;;
7557;SDS011;3820;51.098;13.716;2023-02-28T04:52:31;22.07;;;13.63;;
7557;SDS011;3820;51.098;13.716;2023-02-28T04:54:57;23.13;;;14.70;;
7557;SDS011;3820;51.098;13.716;2023-02-28T04:57:24;24.20;;;13.73;;
7557;SDS011;3820;51.098;13.716;2023-02-28T04:59:50;22.53;;;13.17;;
7557;SDS011;3820;51.098;13.716;2023-02-28T05:02:17;22.47;;;13.73;;
7557;SDS011;3820;51.098;13.716;2023-02-28T05:04:43;23.67;;;13.73;;
7557;SDS011;3820;51.098;13.716;2023-02-28T05:07:10;24.53;;;13.93;;
7557;SDS011;3820;51.098;13.716;2023-02-28T05:09:36;24.10;;;14.43;;
7557;SDS011;3820;51.098;13.716;2023-02-28T05:12:03;26.27;;;14.53;;
7557;SDS011;3820;51.098;13.716;2023-02-28T05:14:30;21.73;;;14.03;;
7557;SDS011;3820;51.098;13.716;2023-02-28T05:16:56;22.43;;;14.50;;
7557;SDS011;3820;51.098;13.716;2023-02-28T05:19:23;22.87;;;14.07;;
7557;SDS011;3820;51.098;13.716;2023-02-28T05:21:50;24.37;;;14.53;;
7557;SDS011;3820;51.098;13.716;2023-02-28T05:24:18;24.07;;;13.60;;
7557;SDS011;3820;51.098;13.716;2023-02-28T05:26:51;26.77;;;14.53;;
7557;SDS011;3820;51.098;13.716;2023-02-28T05:29:19;24.33;;;14.47;;
7557;SDS011;3820;51.098;13.716;2023-02-28T05:31:46;21.67;;;14.00;;
7557;SDS011;3820;51.098;13.716;2023-02-28T05:34:13;27.90;;;15.20;;
7557;SDS011;3820;51.098;13.716;2023-02-28T05:36:41;22.53;;;14.87;;
7557;SDS011;3820;51.098;13.716;2023-02-28T05:39:08;24.90;;;15.00;;
7557;SDS011;3820;51.098;13.716;2023-02-28T05:41:42;32.50;;;14.90;;
7557;SDS011;3820;51.098;13.716;2023-02-28T05:44:09;24.90;;;15.20;;
7557;SDS011;3820;51.098;13.716;2023-02-28T05:46:36;25.37;;;15.60;;
7557;SDS011;3820;51.098;13.716;2023-02-28T05:49:04;32.27;;;17.03;;
7557;SDS011;3820;51.098;13.716;2023-02-28T05:51:31;29.63;;;16.30;;
7557;SDS011;3820;51.098;13.716;2023-02-28T05:53:58;27.23;;;15.83;;
7557;SDS011;3820;51.098;13.716;2023-02-28T05:56:26;33.10;;;17.13;;
7557;SDS011;3820;51.098;13.716;2023-02-28T05:58:54;34.73;;;17.03;;
7557;SDS011;3820;51.098;13.716;2023-02-28T06:01:23;28.67;;;17.40;;
7557;SDS011;3820;51.098;13.716;2023-02-28T06:03:51;32.20;;;18.80;;
7557;SDS011;3820;51.098;13.716;2023-02-28T06:06:18;26.90;;;16.37;;
7557;SDS011;3820;51.098;13.716;2023-02-28T06:08:45;29.13;;;16.70;;
7557;SDS011;3820;51.098;13.716;2023-02-28T06:11:12;31.80;;;18.07;;
7557;SDS011;3820;51.098;13.716;2023-02-28T06:13:38;33.27;;;17.40;;
7557;SDS011;3820;51.098;13.716;2023-02-28T06:16:05;28.83;;;16.50;;
7557;SDS011;3820;51.098;13.716;2023-02-28T06:18:31;32.23;;;18.07;;
7557;SDS011;3820;51.098;13.716;2023-02-28T06:20:58;32.30;;;17.47;;
7557;SDS011;3820;51.098;13.716;2023-02-28T06:23:25;31.47;;;18.60;;
7557;SDS011;3820;51.098;13.716;2023-02-28T06:25:51;37.03;;;19.00;;
7557;SDS011;3820;51.098;13.716;2023-02-28T06:28:19;29.93;;;17.87;;
7557;SDS011;3820;51.098;13.716;2023-02-28T06:30:45;30.63;;;17.50;;
7557;SDS011;3820;51.098;13.716;2023-02-28T06:33:12;30.63;;;16.90;;
7557;SDS011;3820;51.098;13.716;2023-02-28T06:35:38;31.23;;;17.57;;
7557;SDS011;3820;51.098;13.716;2023-02-28T06:38:05;27.07;;;17.63;;
7557;SDS011;3820;51.098;13.716;2023-02-28T06:40:32;28.77;;;17.03;;
7557;SDS011;3820;51.098;13.716;2023-02-28T06:43:01;40.00;;;28.57;;
7557;SDS011;3820;51.098;13.716;2023-02-28T06:45:28;31.10;;;19.27;;
7557;SDS011;3820;51.098;13.716;2023-02-28T06:47:55;38.00;;;21.50;;
7557;SDS011;3820;51.098;13.716;2023-02-28T06:50:21;30.63;;;20.67;;
7557;SDS011;3820;51.098;13.716;2023-02-28T06:52:48;34.60;;;20.87;;
7557;SDS011;3820;51.098;13.716;2023-02-28T06:55:14;32.13;;;20.63;;
7557;SDS011;3820;51.098;13.716;2023-02-28T06:57:41;33.87;;;19.40;;
7557;SDS011;3820;51.098;13.716;2023-02-28T07:00:08;31.97;;;19.83;;
7557;SDS011;3820;51.098;13.716;2023-02-28T07:02:36;34.67;;;20.57;;
7557;SDS011;3820;51.098;13.716;2023-02-28T07:05:04;33.30;;;20.30;;
7557;SDS011;3820;51.098;13.716;2023-02-28T07:07:32;35.70;;;21.57;;
7557;SDS011;3820;51.098;13.716;2023-02-28T07:09:58;38.13;;;22.37;;
7557;SDS011;3820;51.098;13.716;2023-02-28T07:12:25;40.47;;;22.43;;
7557;SDS011;3820;51.098;13.716;2023-02-28T07:14:52;35.63;;;21.37;;
7557;SDS011;3820;51.098;13.716;2023-02-28T07:17:18;45.87;;;27.83;;
7557;SDS011;3820;51.098;13.716;2023-02-28T07:19:45;33.90;;;21.53;;
7557;SDS011;3820;51.098;13.716;2023-02-28T07:22:12;32.10;;;19.27;;
7557;SDS011;3820;51.098;13.716;2023-02-28T07:24:41;21.97;;;12.60;;
7557;SDS011;3820;51.098;13.716;2023-02-28T07:27:07;15.03;;;11.27;;
7557;SDS011;3820;51.098;13.716;2023-02-28T07:29:34;19.73;;;11.50;;
7557;SDS011;3820;51.098;13.716;2023-02-28T07:32:00;14.70;;;11.07;;
7557;SDS011;3820;51.098;13.716;2023-02-28T07:34:27;17.17;;;11.00;;
7557;SDS011;3820;51.098;13.716;2023-02-28T07:36:53;16.30;;;10.93;;
7557;SDS011;3820;51.098;13.716;2023-02-28T07:39:21;19.17;;;12.33;;
7557;SDS011;3820;51.098;13.716;2023-02-28T07:41:48;16.73;;;11.43;;
7557;SDS011;3820;51.098;13.716;2023-02-28T07:44:14;16.33;;;11.50;;
7557;SDS011;3820;51.098;13.716;2023-02-28T07:46:41;18.13;;;11.50;;
7557;SDS011;3820;51.098;13.716;2023-02-28T07:49:07;16.13;;;11.40;;
7557;SDS011;3820;51.098;13.716;2023-02-28T07:51:34;17.80;;;11.87;;
7557;SDS011;3820;51.098;13.716;2023-02-28T07:54:00;19.73;;;11.97;;
7557;SDS011;3820;51.098;13.716;2023-02-28T07:56:27;20.80;;;13.27;;
7557;SDS011;3820;51.098;13.716;2023-02-28T07:58:54;16.03;;;11.17;;
7557;SDS011;3820;51.098;13.716;2023-02-28T08:01:21;17.77;;;11.70;;
7557;SDS011;3820;51.098;13.716;2023-02-28T08:03:48;17.30;;;11.27;;
7557;SDS011;3820;51.098;13.716;2023-02-28T08:06:15;18.53;;;12.60;;
7557;SDS011;3820;51.098;13.716;2023-02-28T08:08:43;18.13;;;11.87;;
7557;SDS011;3820;51.098;13.716;2023-02-28T08:11:10;17.87;;;11.70;;
7557;SDS011;3820;51.098;13.716;2023-02-28T08:13:37;19.27;;;12.00;;
7557;SDS011;3820;51.098;13.716;2023-02-28T08:16:03;15.70;;;11.50;;
7557;SDS011;3820;51.098;13.716;2023-02-28T08:18:30;18.90;;;12.30;;
7557;SDS011;3820;51.098;13.716;2023-02-28T08:20:58;23.53;;;14.63;;
7557;SDS011;3820;51.098;13.716;2023-02-28T08:23:25;25.67;;;16.07;;
7557;SDS011;3820;51.098;13.716;2023-02-28T08:25:55;30.40;;;18.17;;
7557;SDS011;3820;51.098;13.716;2023-02-28T08:28:22;17.97;;;13.23;;
7557;SDS011;3820;51.098;13.716;2023-02-28T08:30:52;22.67;;;12.73;;
7557;SDS011;3820;51.098;13.716;2023-02-28T08:33:19;18.83;;;12.73;;
7557;SDS011;3820;51.098;13.716;2023-02-28T08:35:47;20.03;;;13.83;;
7557;SDS011;3820;51.098;13.716;2023-02-28T08:38:14;18.17;;;12.57;;
7557;SDS011;3820;51.098;13.716;2023-02-28T08:40:40;17.37;;;11.70;;
7557;SDS011;3820;51.098;13.716;2023-02-28T08:43:07;20.10;;;13.13;;
7557;SDS011;3820;51.098;13.716;2023-02-28T08:45:33;21.37;;;14.13;;
7557;SDS011;3820;51.098;13.716;2023-02-28T08:48:00;20.70;;;13.47;;
7557;SDS011;3820;51.098;13.716;2023-02-28T08:50:26;22.67;;;13.00;;
7557;SDS011;3820;51.098;13.716;2023-02-28T08:52:53;20.73;;;13.17;;
7557;SDS011;3820;51.098;13.716;2023-02-28T08:55:20;21.23;;;12.17;;
7557;SDS011;3820;51.098;13.716;2023-02-28T08:57:46;17.30;;;10.97;;
7557;SDS011;3820;51.098;13.716;2023-02-28T09:00:13;15.93;;;10.17;;
7557;SDS011;3820;51.098;13.716;2023-02-28T09:02:41;15.17;;;10.50;;
7557;SDS011;3820;51.098;13.716;2023-02-28T09:05:10;14.97;;;9.90;;
7557;SDS011;3820;51.098;13.716;2023-02-28T09:07:37;16.83;;;10.53;;
7557;SDS011;3820;51.098;13.716;2023-02-28T09:10:03;16.13;;;9.83;;
7557;SDS011;3820;51.098;13.716;2023-02-28T09:12:32;13.53;;;9.17;;
7557;SDS011;3820;51.098;13.716;2023-02-28T09:15:00;15.33;;;9.70;;
7557;SDS011;3820;51.098;13.716;2023-02-28T09:17:27;13.83;;;9.77;;
7557;SDS011;3820;51.098;13.716;2023-02-28T09:19:56;15.23;;;9.10;;
7557;SDS011;3820;51.098;13.716;2023-02-28T09:22:23;14.47;;;9.13;;
7557;SDS011;3820;51.098;13.716;2023-02-28T09:24:50;13.10;;;8.97;;
7557;SDS011;3820;51.098;13.716;2023-02-28T09:27:16;12.73;;;8.83;;
7557;SDS011;3820;51.098;13.716;2023-02-28T09:29:43;14.30;;;9.03;;
7557;SDS011;3820;51.098;13.716;2023-02-28T09:32:10;11.77;;;8.57;;
7557;SDS011;3820;51.098;13.716;2023-02-28T09:34:36;14.00;;;8.17;;
7557;SDS011;3820;51.098;13.716;2023-02-28T09:37:04;12.57;;;9.00;;
7557;SDS011;3820;51.098;13.716;2023-02-28T09:39:30;12.77;;;8.90;;
7557;SDS011;3820;51.098;13.716;2023-02-28T09:41:58;11.77;;;8.87;;
7557;SDS011;3820;51.098;13.716;2023-02-28T09:47:05;13.87;;;9.20;;
7557;SDS011;3820;51.098;13.716;2023-02-28T09:49:40;13.10;;;8.50;;
7557;SDS011;3820;51.098;13.716;2023-02-28T09:52:10;14.57;;;9.13;;
7557;SDS011;3820;51.098;13.716;2023-02-28T09:54:40;13.27;;;8.27;;
7557;SDS011;3820;51.098;13.716;2023-02-28T09:57:10;12.27;;;8.83;;
7557;SDS011;3820;51.098;13.716;2023-02-28T09:59:44;12.93;;;8.43;;
7557;SDS011;3820;51.098;13.716;2023-02-28T10:05:39;10.47;;;8.40;;
7557;SDS011;3820;51.098;13.716;2023-02-28T10:08:30;12.53;;;8.50;;
7557;SDS011;3820;51.098;13.716;2023-02-28T10:11:01;12.63;;;9.10;;
7557;SDS011;3820;51.098;13.716;2023-02-28T10:13:35;13.80;;;8.97;;
7557;SDS011;3820;51.098;13.716;2023-02-28T10:16:08;13.57;;;8.60;;
7557;SDS011;3820;51.098;13.716;2023-02-28T10:18:57;12.13;;;8.73;;
7557;SDS011;3820;51.098;13.716;2023-02-28T10:21:35;12.60;;;7.90;;
7557;SDS011;3820;51.098;13.716;2023-02-28T10:24:51;14.13;;;9.10;;
7557;SDS011;3820;51.098;13.716;2023-02-28T10:27:01;13.93;;;8.90;;
7557;SDS011;3820;51.098;13.716;2023-02-28T10:29:33;12.07;;;8.83;;
7557;SDS011;3820;51.098;13.716;2023-02-28T10:32:00;14.60;;;9.80;;
7557;SDS011;3820;51.098;13.716;2023-02-28T10:34:28;12.40;;;9.00;;
7557;SDS011;3820;51.098;13.716;2023-02-28T10:36:54;12.67;;;9.73;;
7557;SDS011;3820;51.098;13.716;2023-02-28T10:39:35;14.17;;;9.13;;
7557;SDS011;3820;51.098;13.716;2023-02-28T10:42:03;12.63;;;9.60;;
7557;SDS011;3820;51.098;13.716;2023-02-28T10:44:30;14.20;;;9.73;;
7557;SDS011;3820;51.098;13.716;2023-02-28T10:46:57;16.40;;;10.47;;
7557;SDS011;3820;51.098;13.716;2023-02-28T10:49:27;14.80;;;9.90;;
7557;SDS011;3820;51.098;13.716;2023-02-28T10:52:00;13.57;;;9.87;;
7557;SDS011;3820;51.098;13.716;2023-02-28T10:54:32;14.77;;;11.00;;
7557;SDS011;3820;51.098;13.716;2023-02-28T10:57:05;17.40;;;10.90;;
7557;SDS011;3820;51.098;13.716;2023-02-28T10:59:51;17.43;;;11.77;;
7557;SDS011;3820;51.098;13.716;2023-02-28T11:02:32;18.10;;;12.67;;
7557;SDS011;3820;51.098;13.716;2023-02-28T11:07:59;18.53;;;11.83;;
7557;SDS011;3820;51.098;13.716;2023-02-28T11:10:52;19.57;;;12.37;;
7557;SDS011;3820;51.098;13.716;2023-02-28T11:13:21;16.90;;;11.23;;
7557;SDS011;3820;51.098;13.716;2023-02-28T11:15:53;16.67;;;11.53;;
7557;SDS011;3820;51.098;13.716;2023-02-28T11:18:23;17.57;;;11.60;;
7557;SDS011;3820;51.098;13.716;2023-02-28T11:20:53;18.03;;;11.37;;
7557;SDS011;3820;51.098;13.716;2023-02-28T11:23:21;15.27;;;11.80;;
7557;SDS011;3820;51.098;13.716;2023-02-28T11:25:52;14.30;;;11.17;;
7557;SDS011;3820;51.098;13.716;2023-02-28T11:28:33;14.73;;;11.40;;
7557;SDS011;3820;51.098;13.716;2023-02-28T11:33:39;17.07;;;11.57;;
7557;SDS011;3820;51.098;13.716;2023-02-28T11:36:11;16.17;;;10.77;;
7557;SDS011;3820;51.098;13.716;2023-02-28T11:38:40;16.77;;;11.27;;
7557;SDS011;3820;51.098;13.716;2023-02-28T11:41:30;14.63;;;10.70;;
7557;SDS011;3820;51.098;13.716;2023-02-28T11:44:00;16.93;;;11.23;;
7557;SDS011;3820;51.098;13.716;2023-02-28T11:46:51;15.40;;;11.17;;
7557;SDS011;3820;51.098;13.716;2023-02-28T11:52:14;16.60;;;11.13;;
7557;SDS011;3820;51.098;13.716;2023-02-28T12:08:22;16.60;;;11.53;;
7557;SDS011;3820;51.098;13.716;2023-02-28T12:11:09;16.33;;;12.13;;
7557;SDS011;3820;51.098;13.716;2023-02-28T12:19:25;17.10;;;12.30;;
7557;SDS011;3820;51.098;13.716;2023-02-28T12:25:02;17.63;;;12.53;;
7557;SDS011;3820;51.098;13.716;2023-02-28T12:27:33;18.10;;;12.23;;
7557;SDS011;3820;51.098;13.716;2023-02-28T12:30:03;15.93;;;12.03;;
7557;SDS011;3820;51.098;13.716;2023-02-28T12:35:04;20.70;;;13.47;;
7557;SDS011;3820;51.098;13.716;2023-02-28T12:40:22;18.53;;;12.90;;
7557;SDS011;3820;51.098;13.716;2023-02-28T12:42:51;19.53;;;12.83;;
7557;SDS011;3820;51.098;13.716;2023-02-28T12:45:20;17.57;;;13.10;;
7557;SDS011;3820;51.098;13.716;2023-02-28T12:48:05;20.17;;;13.57;;
7557;SDS011;3820;51.098;13.716;2023-02-28T12:50:36;18.73;;;12.97;;
7557;SDS011;3820;51.098;13.716;2023-02-28T12:53:05;18.10;;;12.87;;
7557;SDS011;3820;51.098;13.716;2023-02-28T13:09:34;18.77;;;13.13;;
7557;SDS011;3820;51.098;13.716;2023-02-28T13:12:00;17.40;;;13.20;;
7557;SDS011;3820;51.098;13.716;2023-02-28T13:14:36;19.60;;;13.40;;
7557;SDS011;3820;51.098;13.716;2023-02-28T13:19:39;20.03;;;13.97;;
7557;SDS011;3820;51.098;13.716;2023-02-28T13:22:51;19.10;;;13.37;;
7557;SDS011;3820;51.098;13.716;2023-02-28T13:25:01;21.10;;;14.17;;
7557;SDS011;3820;51.098;13.716;2023-02-28T13:27:35;19.20;;;13.80;;
7557;SDS011;3820;51.098;13.716;2023-02-28T13:33:23;21.27;;;13.93;;
7557;SDS011;3820;51.098;13.716;2023-02-28T13:38:55;21.93;;;14.17;;
7557;SDS011;3820;51.098;13.716;2023-02-28T13:46:29;20.77;;;14.27;;
7557;SDS011;3820;51.098;13.716;2023-02-28T13:49:01;20.83;;;14.70;;
7557;SDS011;3820;51.098;13.716;2023-02-28T13:51:49;19.60;;;14.33;;
7557;SDS011;3820;51.098;13.716;2023-02-28T13:54:29;20.13;;;14.03;;
7557;SDS011;3820;51.098;13.716;2023-02-28T14:03:06;20.03;;;14.73;;
7557;SDS011;3820;51.098;13.716;2023-02-28T14:05:35;22.00;;;14.67;;
7557;SDS011;3820;51.098;13.716;2023-02-28T14:08:06;25.43;;;15.23;;
7557;SDS011;3820;51.098;13.716;2023-02-28T14:10:45;22.90;;;15.50;;
7557;SDS011;3820;51.098;13.716;2023-02-28T14:16:14;20.03;;;13.97;;
7557;SDS011;3820;51.098;13.716;2023-02-28T14:18:51;20.20;;;13.93;;
7557;SDS011;3820;51.098;13.716;2023-02-28T14:27:40;20.97;;;15.60;;
7557;SDS011;3820;51.098;13.716;2023-02-28T14:33:16;20.50;;;14.50;;
7557;SDS011;3820;51.098;13.716;2023-02-28T14:35:53;21.77;;;14.80;;
7557;SDS011;3820;51.098;13.716;2023-02-28T14:38:40;22.67;;;15.37;;
7557;SDS011;3820;51.098;13.716;2023-02-28T14:41:14;24.10;;;16.00;;
7557;SDS011;3820;51.098;13.716;2023-02-28T14:43:50;22.20;;;15.30;;
7557;SDS011;3820;51.098;13.716;2023-02-28T14:46:19;24.10;;;15.30;;
7557;SDS011;3820;51.098;13.716;2023-02-28T14:48:46;19.67;;;14.20;;
7557;SDS011;3820;51.098;13.716;2023-02-28T14:51:17;25.47;;;14.77;;
7557;SDS011;3820;51.098;13.716;2023-02-28T14:53:48;22.80;;;15.40;;
7557;SDS011;3820;51.098;13.716;2023-02-28T14:56:24;22.53;;;15.17;;
7557;SDS011;3820;51.098;13.716;2023-02-28T14:59:04;23.90;;;15.90;;
7557;SDS011;3820;51.098;13.716;2023-02-28T15:01:31;22.60;;;15.50;;
7557;SDS011;3820;51.098;13.716;2023-02-28T15:04:02;21.13;;;15.50;;
7557;SDS011;3820;51.098;13.716;2023-02-28T15:06:31;20.67;;;14.60;;
7557;SDS011;3820;51.098;13.716;2023-02-28T15:11:40;21.57;;;16.03;;
7557;SDS011;3820;51.098;13.716;2023-02-28T15:14:12;21.43;;;15.67;;
7557;SDS011;3820;51.098;13.716;2023-02-28T15:16:41;23.63;;;16.10;;
7557;SDS011;3820;51.098;13.716;2023-02-28T15:22:01;25.20;;;15.10;;
7557;SDS011;3820;51.098;13.716;2023-02-28T15:24:41;23.87;;;15.87;;
7557;SDS011;3820;51.098;13.716;2023-02-28T15:27:44;22.47;;;15.33;;
7557;SDS011;3820;51.098;13.716;2023-02-28T15:30:06;22.93;;;15.90;;
7557;SDS011;3820;51.098;13.716;2023-02-28T15:32:36;21.63;;;15.23;;
7557;SDS011;3820;51.098;13.716;2023-02-28T15:35:18;22.53;;;15.70;;
7557;SDS011;3820;51.098;13.716;2023-02-28T15:40:28;21.33;;;14.83;;
7557;SDS011;3820;51.098;13.716;2023-02-28T15:43:03;22.77;;;15.20;;
7557;SDS011;3820;51.098;13.716;2023-02-28T15:45:36;25.50;;;15.80;;
7557;SDS011;3820;51.098;13.716;2023-02-28T15:51:08;22.17;;;15.30;;
7557;SDS011;3820;51.098;13.716;2023-02-28T15:53:44;22.37;;;15.70;;
7557;SDS011;3820;51.098;13.716;2023-02-28T15:56:22;24.17;;;15.93;;
7557;SDS011;3820;51.098;13.716;2023-02-28T15:58:57;24.50;;;16.20;;
7557;SDS011;3820;51.098;13.716;2023-02-28T16:01:30;23.80;;;17.17;;
7557;SDS011;3820;51.098;13.716;2023-02-28T16:04:03;25.57;;;16.63;;
7557;SDS011;3820;51.098;13.716;2023-02-28T16:09:00;23.20;;;16.40;;
7557;SDS011;3820;51.098;13.716;2023-02-28T16:11:27;26.93;;;17.43;;
7557;SDS011;3820;51.098;13.716;2023-02-28T16:13:54;25.60;;;17.50;;
7557;SDS011;3820;51.098;13.716;2023-02-28T16:16:22;28.20;;;16.90;;
7557;SDS011;3820;51.098;13.716;2023-02-28T16:18:50;22.73;;;15.87;;
7557;SDS011;3820;51.098;13.716;2023-02-28T16:21:17;22.90;;;15.50;;
7557;SDS011;3820;51.098;13.716;2023-02-28T16:23:43;26.73;;;16.77;;
7557;SDS011;3820;51.098;13.716;2023-02-28T16:26:16;22.07;;;15.63;;
7557;SDS011;3820;51.098;13.716;2023-02-28T16:28:45;24.23;;;16.57;;
7557;SDS011;3820;51.098;13.716;2023-02-28T16:31:12;27.37;;;16.83;;
7557;SDS011;3820;51.098;13.716;2023-02-28T16:33:43;27.83;;;18.23;;
7557;SDS011;3820;51.098;13.716;2023-02-28T16:36:15;22.30;;;16.30;;
7557;SDS011;3820;51.098;13.716;2023-02-28T16:38:43;26.83;;;17.63;;
7557;SDS011;3820;51.098;13.716;2023-02-28T16:41:12;23.97;;;15.83;;
7557;SDS011;3820;51.098;13.716;2023-02-28T16:43:43;23.00;;;16.90;;
7557;SDS011;3820;51.098;13.716;2023-02-28T16:46:11;22.63;;;16.03;;
7557;SDS011;3820;51.098;13.716;2023-02-28T16:48:39;27.13;;;16.83;;
7557;SDS011;3820;51.098;13.716;2023-02-28T16:51:13;24.93;;;15.80;;
7557;SDS011;3820;51.098;13.716;2023-02-28T16:53:41;28.13;;;16.83;;
7557;SDS011;3820;51.098;13.716;2023-02-28T16:56:16;26.07;;;16.67;;
7557;SDS011;3820;51.098;13.716;2023-02-28T16:58:44;24.73;;;16.37;;
7557;SDS011;3820;51.098;13.716;2023-02-28T17:01:11;25.57;;;16.40;;
7557;SDS011;3820;51.098;13.716;2023-02-28T17:03:38;26.90;;;16.10;;
7557;SDS011;3820;51.098;13.716;2023-02-28T17:06:11;24.33;;;15.77;;
7557;SDS011;3820;51.098;13.716;2023-02-28T17:08:43;30.40;;;17.17;;
7557;SDS011;3820;51.098;13.716;2023-02-28T17:11:09;33.70;;;17.67;;
7557;SDS011;3820;51.098;13.716;2023-02-28T17:13:36;29.53;;;17.37;;
7557;SDS011;3820;51.098;13.716;2023-02-28T17:16:02;27.83;;;17.03;;
7557;SDS011;3820;51.098;13.716;2023-02-28T17:18:29;27.77;;;17.23;;